Time;durP1;ratioP1;P1;durP2;ratioP2;P2;SDS_P1;SDS_P2;PMS_P1;PMS_P2;Temp;Humidity;BMP_temperature;BMP_pressure;BME280_temperature;BME280_humidity;BME280_pressure;Samples;Min_cycle;Max_cycle;Signal;HPM_P1;HPM_P2
2023/10/25 00:00:28;;;;;;;8.20;3.13;;;;;;;;;;2613128;54;20400;-74
2023/10/25 00:02:54;;;;;;;10.23;2.90;;;;;;;;;;2613704;54;20411;-73
2023/10/25 00:05:20;;;;;;;7.60;3.33;;;;;;;;;;2611339;54;20425;-73
2023/10/25 00:07:46;;;;;;;9.00;3.57;;;;;;;;;;2612971;54;20491;-73
2023/10/25 00:10:12;;;;;;;8.13;4.40;;;;;;;;;;2612840;54;20577;-73
2023/10/25 00:12:39;;;;;;;13.33;3.70;;;;;;;;;;2612788;54;20419;-73
2023/10/25 00:15:05;;;;;;;7.83;4.57;;;;;;;;;;2611759;51;20423;-72
2023/10/25 00:17:31;;;;;;;7.27;4.10;;;;;;;;;;2612859;54;20450;-74
2023/10/25 00:19:57;;;;;;;7.20;4.10;;;;;;;;;;2613243;54;20391;-72
2023/10/25 00:22:23;;;;;;;10.93;4.17;;;;;;;;;;2612621;54;20419;-73
2023/10/25 00:24:49;;;;;;;5.97;3.70;;;;;;;;;;2612626;54;20989;-73
2023/10/25 00:27:15;;;;;;;5.97;3.70;;;;;;;;;;2612241;54;20436;-73
2023/10/25 00:29:41;;;;;;;10.30;4.10;;;;;;;;;;2612978;54;20407;-74
2023/10/25 00:32:14;;;;;;;12.20;4.10;;;;;;;;;;2612938;54;20433;-73
2023/10/25 00:34:40;;;;;;;9.87;4.10;;;;;;;;;;2614931;54;20415;-74
2023/10/25 00:37:07;;;;;;;8.00;3.63;;;;;;;;;;2614543;54;20415;-75
2023/10/25 00:39:33;;;;;;;4.37;3.20;;;;;;;;;;2614525;54;20489;-75
2023/10/25 00:41:59;;;;;;;4.40;3.70;;;;;;;;;;2614612;47;20379;-75
2023/10/25 00:44:25;;;;;;;5.50;3.30;;;;;;;;;;2614859;54;20430;-75
2023/10/25 00:46:53;;;;;;;9.30;3.90;;;;;;;;;;2614851;54;20526;-75
2023/10/25 00:49:20;;;;;;;8.50;3.93;;;;;;;;;;2615314;54;20414;-75
2023/10/25 00:51:47;;;;;;;6.20;3.40;;;;;;;;;;2614708;47;20423;-74
2023/10/25 00:54:14;;;;;;;5.80;3.57;;;;;;;;;;2615047;47;20383;-75
2023/10/25 00:56:45;;;;;;;7.70;3.97;;;;;;;;;;2614983;54;20503;-75
2023/10/25 00:59:12;;;;;;;7.70;4.47;;;;;;;;;;2614889;54;20514;-74
2023/10/25 01:01:41;;;;;;;7.73;4.00;;;;;;;;;;2614488;47;20517;-74
2023/10/25 01:04:08;;;;;;;9.63;3.93;;;;;;;;;;2615343;54;20411;-74
2023/10/25 01:06:35;;;;;;;6.13;3.27;;;;;;;;;;2615513;54;20411;-75
2023/10/25 01:09:01;;;;;;;8.13;3.70;;;;;;;;;;2615181;54;20419;-74
2023/10/25 01:11:27;;;;;;;9.20;3.77;;;;;;;;;;2614490;54;20415;-74
2023/10/25 01:13:54;;;;;;;5.13;3.27;;;;;;;;;;2614720;54;20431;-74
2023/10/25 01:16:20;;;;;;;7.20;3.50;;;;;;;;;;2614890;54;20418;-73
2023/10/25 01:18:48;;;;;;;6.27;4.20;;;;;;;;;;2614057;47;20423;-74
2023/10/25 01:21:17;;;;;;;9.57;4.17;;;;;;;;;;2615094;54;20411;-74
2023/10/25 01:23:43;;;;;;;9.80;4.03;;;;;;;;;;2614232;54;20394;-74
2023/10/25 01:26:09;;;;;;;6.97;4.03;;;;;;;;;;2611104;54;20415;-74
2023/10/25 01:28:35;;;;;;;8.20;4.37;;;;;;;;;;2612670;54;20398;-75
2023/10/25 01:31:02;;;;;;;10.20;4.20;;;;;;;;;;2612137;47;20450;-75
2023/10/25 01:33:28;;;;;;;7.13;3.90;;;;;;;;;;2610977;54;20407;-74
2023/10/25 01:35:54;;;;;;;9.83;4.20;;;;;;;;;;2612237;47;20467;-75
2023/10/25 01:38:20;;;;;;;6.17;3.27;;;;;;;;;;2612888;47;20489;-74
2023/10/25 01:40:46;;;;;;;9.80;4.40;;;;;;;;;;2613779;54;21235;-74
2023/10/25 01:43:12;;;;;;;5.17;4.30;;;;;;;;;;2612475;54;20407;-74
2023/10/25 01:45:45;;;;;;;6.70;4.13;;;;;;;;;;2615591;54;20411;-76
2023/10/25 01:48:15;;;;;;;8.40;4.43;;;;;;;;;;2616069;54;20559;-75
2023/10/25 01:50:41;;;;;;;6.80;4.40;;;;;;;;;;2615757;39;20791;-74
2023/10/25 01:53:07;;;;;;;5.10;3.87;;;;;;;;;;2612081;47;20438;-74
2023/10/25 01:55:33;;;;;;;7.37;3.50;;;;;;;;;;2613652;54;20409;-72
2023/10/25 01:57:59;;;;;;;6.63;4.10;;;;;;;;;;2613763;54;20487;-72
2023/10/25 02:00:25;;;;;;;9.27;3.80;;;;;;;;;;2613587;54;20401;-72
2023/10/25 02:02:51;;;;;;;6.80;3.90;;;;;;;;;;2613036;54;20415;-73
2023/10/25 02:05:18;;;;;;;8.97;4.40;;;;;;;;;;2612842;54;20419;-73
2023/10/25 02:07:45;;;;;;;7.30;4.33;;;;;;;;;;2614124;39;20442;-74
2023/10/25 02:10:11;;;;;;;8.63;3.77;;;;;;;;;;2613674;54;20465;-73
2023/10/25 02:12:37;;;;;;;6.90;4.90;;;;;;;;;;2613938;54;20394;-73
2023/10/25 02:15:03;;;;;;;8.10;3.90;;;;;;;;;;2613040;54;20406;-73
2023/10/25 02:17:29;;;;;;;9.60;4.77;;;;;;;;;;2612919;47;20411;-73
2023/10/25 02:19:55;;;;;;;7.03;5.13;;;;;;;;;;2613988;39;20889;-72
2023/10/25 02:22:21;;;;;;;9.00;4.40;;;;;;;;;;2613121;54;20419;-72
2023/10/25 02:24:49;;;;;;;7.70;4.33;;;;;;;;;;2612948;54;20405;-74
2023/10/25 02:27:16;;;;;;;12.40;4.60;;;;;;;;;;2613822;54;20403;-72
2023/10/25 02:29:42;;;;;;;9.00;5.10;;;;;;;;;;2612929;54;20439;-72
2023/10/25 02:32:10;;;;;;;5.70;3.50;;;;;;;;;;2613610;54;20934;-73
2023/10/25 02:34:36;;;;;;;5.30;4.27;;;;;;;;;;2612875;54;20395;-73
2023/10/25 02:37:03;;;;;;;7.90;3.67;;;;;;;;;;2613189;54;20487;-73
2023/10/25 02:39:29;;;;;;;8.13;3.87;;;;;;;;;;2612136;54;20451;-73
2023/10/25 02:41:55;;;;;;;5.63;3.70;;;;;;;;;;2613329;54;20398;-72
2023/10/25 02:44:21;;;;;;;13.20;4.17;;;;;;;;;;2613277;54;20408;-73
2023/10/25 02:46:47;;;;;;;8.50;5.20;;;;;;;;;;2612913;39;20804;-73
2023/10/25 02:49:13;;;;;;;5.33;4.00;;;;;;;;;;2613056;54;20466;-72
2023/10/25 02:51:39;;;;;;;8.33;3.17;;;;;;;;;;2613820;54;20956;-71
2023/10/25 02:54:07;;;;;;;7.53;3.93;;;;;;;;;;2613718;54;20974;-74
2023/10/25 02:56:33;;;;;;;8.87;4.10;;;;;;;;;;2615729;54;20430;-74
2023/10/25 02:59:00;;;;;;;4.57;3.43;;;;;;;;;;2616523;54;20434;-74
2023/10/25 03:01:26;;;;;;;16.23;4.37;;;;;;;;;;2616777;54;20423;-74
2023/10/25 03:03:54;;;;;;;5.93;3.53;;;;;;;;;;2617129;54;20415;-74
2023/10/25 03:06:27;;;;;;;5.50;4.20;;;;;;;;;;2615710;54;20582;-75
2023/10/25 03:08:57;;;;;;;4.90;3.47;;;;;;;;;;2615946;54;20486;-75
2023/10/25 03:11:26;;;;;;;6.30;3.77;;;;;;;;;;2617115;39;20821;-73
2023/10/25 03:13:52;;;;;;;8.40;4.97;;;;;;;;;;2615835;47;20958;-74
2023/10/25 03:16:26;;;;;;;8.40;3.73;;;;;;;;;;2616476;54;20416;-74
2023/10/25 03:19:01;;;;;;;8.40;3.83;;;;;;;;;;2616312;54;20431;-74
2023/10/25 03:21:30;;;;;;;5.63;3.87;;;;;;;;;;2616222;47;20392;-74
2023/10/25 03:23:56;;;;;;;6.60;3.33;;;;;;;;;;2617021;39;20792;-74
2023/10/25 03:26:23;;;;;;;9.13;3.90;;;;;;;;;;2616046;54;20434;-74
2023/10/25 03:28:57;;;;;;;5.17;3.63;;;;;;;;;;2615264;54;20423;-74
2023/10/25 03:31:24;;;;;;;12.63;3.87;;;;;;;;;;2616209;54;21042;-74
2023/10/25 03:34:03;;;;;;;7.63;4.03;;;;;;;;;;2616493;54;20400;-74
2023/10/25 03:36:29;;;;;;;5.67;3.93;;;;;;;;;;2616657;54;20424;-74
2023/10/25 03:38:55;;;;;;;10.60;4.80;;;;;;;;;;2615873;39;20869;-74
2023/10/25 03:41:32;;;;;;;7.07;3.97;;;;;;;;;;2616678;54;20507;-74
2023/10/25 03:43:58;;;;;;;6.43;4.17;;;;;;;;;;2616681;54;20424;-74
2023/10/25 03:46:24;;;;;;;8.53;4.27;;;;;;;;;;2616761;54;20499;-74
2023/10/25 03:48:50;;;;;;;7.43;3.70;;;;;;;;;;2615845;47;20416;-74
2023/10/25 03:51:19;;;;;;;8.30;3.90;;;;;;;;;;2616003;47;20495;-73
2023/10/25 03:53:47;;;;;;;5.47;3.00;;;;;;;;;;2616800;39;20786;-73
2023/10/25 03:56:14;;;;;;;5.20;4.03;;;;;;;;;;2616389;54;20519;-74
2023/10/25 03:58:43;;;;;;;7.20;3.77;;;;;;;;;;2616342;54;20427;-74
2023/10/25 04:01:09;;;;;;;9.30;4.20;;;;;;;;;;2615382;39;21250;-74
2023/10/25 04:03:39;;;;;;;4.80;3.70;;;;;;;;;;2615839;54;20392;-74
2023/10/25 04:06:07;;;;;;;8.87;4.10;;;;;;;;;;2616233;54;20403;-74
2023/10/25 04:08:37;;;;;;;6.90;4.20;;;;;;;;;;2616283;54;20514;-74
2023/10/25 04:11:04;;;;;;;8.13;3.90;;;;;;;;;;2616147;54;20429;-74
2023/10/25 04:13:30;;;;;;;8.50;4.00;;;;;;;;;;2616293;54;20426;-74
2023/10/25 04:15:59;;;;;;;13.63;3.70;;;;;;;;;;2616468;54;20486;-75
2023/10/25 04:18:28;;;;;;;13.23;4.50;;;;;;;;;;2614725;54;20456;-73
2023/10/25 04:21:08;;;;;;;7.47;3.97;;;;;;;;;;2616658;54;21033;-74
2023/10/25 04:23:36;;;;;;;4.47;3.17;;;;;;;;;;2616595;54;20415;-74
2023/10/25 04:26:10;;;;;;;5.30;3.17;;;;;;;;;;2615789;54;20411;-75
2023/10/25 04:28:45;;;;;;;7.23;3.77;;;;;;;;;;2615907;54;20433;-75
2023/10/25 04:31:12;;;;;;;7.60;4.50;;;;;;;;;;2616223;54;20398;-74
2023/10/25 04:33:39;;;;;;;5.27;3.60;;;;;;;;;;2615724;47;20524;-74
2023/10/25 04:36:06;;;;;;;7.23;4.07;;;;;;;;;;2616360;54;20404;-75
2023/10/25 04:38:33;;;;;;;10.53;3.63;;;;;;;;;;2614861;54;20983;-73
2023/10/25 04:41:01;;;;;;;6.73;3.57;;;;;;;;;;2616151;54;20423;-74
2023/10/25 04:43:29;;;;;;;8.43;4.40;;;;;;;;;;2615466;47;20511;-75
2023/10/25 04:46:03;;;;;;;7.97;3.93;;;;;;;;;;2616047;54;20893;-74
2023/10/25 04:48:31;;;;;;;8.83;4.20;;;;;;;;;;2615034;47;20430;-73
2023/10/25 04:50:59;;;;;;;7.07;3.90;;;;;;;;;;2616365;31;20877;-75
2023/10/25 04:53:25;;;;;;;6.10;4.10;;;;;;;;;;2615328;47;20474;-74
2023/10/25 04:55:52;;;;;;;4.50;3.23;;;;;;;;;;2615273;54;20936;-74
2023/10/25 04:58:20;;;;;;;10.67;3.70;;;;;;;;;;2615567;54;20414;-74
2023/10/25 05:00:52;;;;;;;5.50;3.20;;;;;;;;;;2615278;54;20415;-75
2023/10/25 05:03:19;;;;;;;8.43;4.13;;;;;;;;;;2615103;47;21042;-74
2023/10/25 05:05:47;;;;;;;7.47;3.97;;;;;;;;;;2616349;54;20973;-76
2023/10/25 05:08:17;;;;;;;11.00;3.73;;;;;;;;;;2615481;47;20412;-78
2023/10/25 05:10:45;;;;;;;6.87;3.57;;;;;;;;;;2616661;31;21042;-75
2023/10/25 05:13:13;;;;;;;6.43;3.57;;;;;;;;;;2615362;54;20433;-74
2023/10/25 05:15:39;;;;;;;9.30;3.80;;;;;;;;;;2612532;54;20410;-73
2023/10/25 05:18:05;;;;;;;6.80;3.23;;;;;;;;;;2613445;54;20427;-72
2023/10/25 05:20:31;;;;;;;5.27;3.00;;;;;;;;;;2614262;46;20919;-73
2023/10/25 05:22:58;;;;;;;9.37;4.00;;;;;;;;;;2613177;54;20431;-73
2023/10/25 05:25:24;;;;;;;5.13;3.80;;;;;;;;;;2614072;54;20415;-73
2023/10/25 05:27:51;;;;;;;6.00;3.60;;;;;;;;;;2614003;54;20506;-73
2023/10/25 05:30:17;;;;;;;7.37;3.30;;;;;;;;;;2614083;54;20475;-73
2023/10/25 05:32:47;;;;;;;5.67;3.97;;;;;;;;;;2612617;54;20423;-73
2023/10/25 05:35:14;;;;;;;5.10;3.13;;;;;;;;;;2613758;54;20391;-73
2023/10/25 05:37:40;;;;;;;4.83;3.30;;;;;;;;;;2612992;54;20403;-73
2023/10/25 05:40:06;;;;;;;10.20;3.93;;;;;;;;;;2613462;47;21013;-73
2023/10/25 05:42:37;;;;;;;5.77;4.00;;;;;;;;;;2613910;54;20403;-73
2023/10/25 05:45:03;;;;;;;5.40;3.37;;;;;;;;;;2612981;54;20434;-72
2023/10/25 05:47:30;;;;;;;6.57;4.03;;;;;;;;;;2613289;39;20821;-74
2023/10/25 05:49:56;;;;;;;6.53;3.77;;;;;;;;;;2613262;54;20456;-73
2023/10/25 05:52:22;;;;;;;8.07;4.07;;;;;;;;;;2614009;54;20395;-74
2023/10/25 05:54:48;;;;;;;8.63;3.20;;;;;;;;;;2613521;54;20430;-72
2023/10/25 05:57:14;;;;;;;7.63;3.37;;;;;;;;;;2611614;50;20415;-75
2023/10/25 05:59:41;;;;;;;5.13;3.87;;;;;;;;;;2611182;54;20418;-74
2023/10/25 06:02:15;;;;;;;6.00;3.30;;;;;;;;;;2613528;54;20411;-73
2023/10/25 06:04:42;;;;;;;3.73;3.27;;;;;;;;;;2613733;54;20410;-73
2023/10/25 06:07:09;;;;;;;5.20;3.57;;;;;;;;;;2612502;54;20426;-72
2023/10/25 06:09:36;;;;;;;8.80;3.87;;;;;;;;;;2612796;46;20630;-72
2023/10/25 06:12:03;;;;;;;4.37;3.17;;;;;;;;;;2612816;46;20431;-73
2023/10/25 06:14:29;;;;;;;12.17;4.30;;;;;;;;;;2612900;54;20949;-71
2023/10/25 06:16:56;;;;;;;5.40;3.10;;;;;;;;;;2613671;54;20594;-73
2023/10/25 06:19:22;;;;;;;7.43;3.43;;;;;;;;;;2613869;39;20791;-71
2023/10/25 06:21:48;;;;;;;6.77;3.80;;;;;;;;;;2613135;54;20428;-72
2023/10/25 06:24:14;;;;;;;5.77;3.80;;;;;;;;;;2613904;54;20515;-74
2023/10/25 06:26:41;;;;;;;5.47;3.43;;;;;;;;;;2613518;54;21084;-73
2023/10/25 06:29:08;;;;;;;11.77;3.57;;;;;;;;;;2612778;54;20431;-74
2023/10/25 06:31:34;;;;;;;4.80;3.40;;;;;;;;;;2613267;54;20408;-74
2023/10/25 06:34:00;;;;;;;7.23;3.87;;;;;;;;;;2612687;54;20454;-74
2023/10/25 06:36:26;;;;;;;4.10;3.43;;;;;;;;;;2613425;54;21048;-74
2023/10/25 06:38:53;;;;;;;7.30;4.07;;;;;;;;;;2613825;54;20443;-74
2023/10/25 06:41:22;;;;;;;5.83;4.10;;;;;;;;;;2613543;54;20402;-74
2023/10/25 06:43:48;;;;;;;4.50;3.30;;;;;;;;;;2612647;54;20486;-74
2023/10/25 06:46:15;;;;;;;5.70;3.20;;;;;;;;;;2613109;47;20422;-74
2023/10/25 06:48:41;;;;;;;9.67;4.13;;;;;;;;;;2613288;54;20426;-74
2023/10/25 06:51:08;;;;;;;9.83;3.47;;;;;;;;;;2613045;54;20926;-74
2023/10/25 06:53:36;;;;;;;7.23;3.87;;;;;;;;;;2613953;39;21139;-74
2023/10/25 06:56:02;;;;;;;6.43;3.97;;;;;;;;;;2613485;54;20989;-71
2023/10/25 06:58:29;;;;;;;10.77;3.97;;;;;;;;;;2612099;39;21125;-73
2023/10/25 07:00:56;;;;;;;9.50;3.67;;;;;;;;;;2612663;54;20431;-71
2023/10/25 07:03:36;;;;;;;10.30;3.40;;;;;;;;;;2612397;54;20434;-73
2023/10/25 07:06:04;;;;;;;8.23;3.90;;;;;;;;;;2613562;54;20938;-72
2023/10/25 07:08:31;;;;;;;5.57;3.73;;;;;;;;;;2613459;54;20903;-71
2023/10/25 07:10:57;;;;;;;4.00;2.80;;;;;;;;;;2613005;54;20411;-72
2023/10/25 07:13:26;;;;;;;5.10;3.60;;;;;;;;;;2613936;54;20399;-72
2023/10/25 07:15:54;;;;;;;4.50;3.37;;;;;;;;;;2612159;46;20399;-72
2023/10/25 07:18:20;;;;;;;8.53;3.07;;;;;;;;;;2613246;54;20407;-72
2023/10/25 07:20:46;;;;;;;7.50;3.80;;;;;;;;;;2613462;54;20423;-72
2023/10/25 07:23:12;;;;;;;7.20;3.47;;;;;;;;;;2613486;54;21338;-73
2023/10/25 07:25:39;;;;;;;4.90;3.03;;;;;;;;;;2613678;54;20463;-71
2023/10/25 07:28:05;;;;;;;3.20;2.90;;;;;;;;;;2613368;54;20414;-72
2023/10/25 07:30:32;;;;;;;4.83;2.80;;;;;;;;;;2613192;54;20399;-72
2023/10/25 07:32:58;;;;;;;5.63;3.10;;;;;;;;;;2612091;54;20418;-73
2023/10/25 07:35:24;;;;;;;2.70;2.23;;;;;;;;;;2613660;54;20421;-73
2023/10/25 07:37:50;;;;;;;7.97;3.20;;;;;;;;;;2612823;54;20376;-73
2023/10/25 07:40:16;;;;;;;4.33;2.47;;;;;;;;;;2613595;54;20399;-73
2023/10/25 07:42:42;;;;;;;4.30;2.80;;;;;;;;;;2611349;54;20559;-74
2023/10/25 07:45:08;;;;;;;3.03;2.60;;;;;;;;;;2613227;54;20567;-74
2023/10/25 07:47:35;;;;;;;4.60;3.10;;;;;;;;;;2613028;54;20388;-73
2023/10/25 07:50:01;;;;;;;5.90;2.80;;;;;;;;;;2613228;54;20388;-74
2023/10/25 07:52:30;;;;;;;7.70;2.90;;;;;;;;;;2613091;54;20431;-73
2023/10/25 07:54:56;;;;;;;4.93;3.17;;;;;;;;;;2613340;54;20511;-74
2023/10/25 07:57:23;;;;;;;5.50;2.80;;;;;;;;;;2612134;54;20408;-73
2023/10/25 07:59:49;;;;;;;8.20;2.97;;;;;;;;;;2612256;46;20438;-74
2023/10/25 08:02:15;;;;;;;4.83;2.90;;;;;;;;;;2611886;47;20458;-74
2023/10/25 08:04:42;;;;;;;9.20;2.60;;;;;;;;;;2613597;54;21359;-74
2023/10/25 08:07:10;;;;;;;10.37;3.27;;;;;;;;;;2613316;54;20416;-74
2023/10/25 08:09:36;;;;;;;7.50;3.37;;;;;;;;;;2613287;54;20474;-74
2023/10/25 08:12:02;;;;;;;3.87;2.53;;;;;;;;;;2613166;54;20427;-75
2023/10/25 08:14:29;;;;;;;3.63;2.70;;;;;;;;;;2613205;54;20522;-75
2023/10/25 08:16:55;;;;;;;10.17;2.70;;;;;;;;;;2613463;54;20427;-73
2023/10/25 08:19:21;;;;;;;6.17;2.77;;;;;;;;;;2611797;54;20442;-74
2023/10/25 08:21:47;;;;;;;5.83;2.53;;;;;;;;;;2613043;54;20919;-75
2023/10/25 08:24:14;;;;;;;4.80;3.20;;;;;;;;;;2613714;39;20902;-75
2023/10/25 08:26:40;;;;;;;6.20;2.60;;;;;;;;;;2612554;47;20424;-75
2023/10/25 08:29:07;;;;;;;5.07;2.50;;;;;;;;;;2613521;39;20515;-75
2023/10/25 08:31:33;;;;;;;8.33;3.13;;;;;;;;;;2613317;54;20416;-75
2023/10/25 08:34:00;;;;;;;2.93;2.33;;;;;;;;;;2612519;47;20388;-75
2023/10/25 08:36:28;;;;;;;3.37;2.50;;;;;;;;;;2612762;47;20411;-75
2023/10/25 08:38:55;;;;;;;6.40;2.80;;;;;;;;;;2612377;54;21017;-75
2023/10/25 08:41:24;;;;;;;5.03;2.47;;;;;;;;;;2613559;54;20446;-75
2023/10/25 08:43:52;;;;;;;6.90;2.70;;;;;;;;;;2612924;54;20439;-75
2023/10/25 08:46:19;;;;;;;4.73;3.33;;;;;;;;;;2612542;54;20511;-72
2023/10/25 08:48:45;;;;;;;4.50;2.83;;;;;;;;;;2613821;31;20977;-73
2023/10/25 08:51:14;;;;;;;6.20;3.00;;;;;;;;;;2613209;54;20423;-72
2023/10/25 08:53:42;;;;;;;3.37;2.30;;;;;;;;;;2613301;54;21018;-73
2023/10/25 08:56:09;;;;;;;2.97;2.17;;;;;;;;;;2612372;54;20420;-71
2023/10/25 08:58:35;;;;;;;3.73;2.33;;;;;;;;;;2612456;54;20400;-72
2023/10/25 09:01:02;;;;;;;6.67;2.57;;;;;;;;;;2612977;54;20423;-73
2023/10/25 09:03:32;;;;;;;3.77;2.20;;;;;;;;;;2613122;54;20542;-74
2023/10/25 09:06:05;;;;;;;3.50;3.10;;;;;;;;;;2613169;54;20384;-74
2023/10/25 09:08:31;;;;;;;4.67;2.60;;;;;;;;;;2612112;47;20400;-71
2023/10/25 09:11:00;;;;;;;3.20;2.47;;;;;;;;;;2613492;46;20430;-73
2023/10/25 09:13:27;;;;;;;4.17;2.20;;;;;;;;;;2613530;54;20442;-72
2023/10/25 09:16:16;;;;;;;6.20;2.90;;;;;;;;;;2612632;54;20451;-73
2023/10/25 09:18:42;;;;;;;3.03;2.73;;;;;;;;;;2613086;54;20422;-72
2023/10/25 09:21:12;;;;;;;3.80;2.47;;;;;;;;;;2612348;54;20953;-71
2023/10/25 09:23:38;;;;;;;7.33;2.97;;;;;;;;;;2612284;47;20969;-74
2023/10/25 09:26:14;;;;;;;6.37;2.73;;;;;;;;;;2613770;39;20796;-74
2023/10/25 09:28:41;;;;;;;3.70;2.50;;;;;;;;;;2612340;54;20398;-74
2023/10/25 09:31:22;;;;;;;10.13;3.17;;;;;;;;;;2612462;54;20404;-73
2023/10/25 09:33:50;;;;;;;3.23;2.30;;;;;;;;;;2611498;54;20566;-74
2023/10/25 09:36:19;;;;;;;5.63;2.57;;;;;;;;;;2612718;54;20414;-74
2023/10/25 09:38:45;;;;;;;11.80;2.93;;;;;;;;;;2612687;54;20450;-73
2023/10/25 09:41:14;;;;;;;3.10;2.80;;;;;;;;;;2612831;54;20379;-74
2023/10/25 09:43:45;;;;;;;5.07;2.70;;;;;;;;;;2612338;46;20423;-73
2023/10/25 09:46:13;;;;;;;3.73;2.67;;;;;;;;;;2612310;54;20957;-73
2023/10/25 09:48:42;;;;;;;2.47;2.27;;;;;;;;;;2612413;54;20413;-73
2023/10/25 09:51:17;;;;;;;4.83;3.00;;;;;;;;;;2612713;54;20408;-74
2023/10/25 09:53:58;;;;;;;6.30;3.03;;;;;;;;;;2612868;54;20445;-74
2023/10/25 09:56:25;;;;;;;6.30;2.57;;;;;;;;;;2613864;39;20895;-72
2023/10/25 09:58:52;;;;;;;4.23;2.73;;;;;;;;;;2612939;39;20767;-73
2023/10/25 10:01:18;;;;;;;8.30;2.40;;;;;;;;;;2612877;39;20498;-74
2023/10/25 10:03:48;;;;;;;8.13;3.00;;;;;;;;;;2611659;47;20988;-72
2023/10/25 10:06:20;;;;;;;4.10;2.53;;;;;;;;;;2612862;54;20411;-73
2023/10/25 10:08:51;;;;;;;3.63;2.50;;;;;;;;;;2613945;54;20446;-74
2023/10/25 10:11:18;;;;;;;4.00;2.67;;;;;;;;;;2613544;54;20515;-73
2023/10/25 10:13:44;;;;;;;9.17;3.00;;;;;;;;;;2613933;54;20934;-73
2023/10/25 10:16:15;;;;;;;6.00;2.70;;;;;;;;;;2612872;47;20432;-73
2023/10/25 10:18:45;;;;;;;4.40;2.70;;;;;;;;;;2613905;39;20795;-74
2023/10/25 10:21:14;;;;;;;9.77;2.17;;;;;;;;;;2612106;54;20423;-73
2023/10/25 10:23:45;;;;;;;4.00;3.13;;;;;;;;;;2612601;54;20416;-73
2023/10/25 10:26:11;;;;;;;4.53;2.30;;;;;;;;;;2614013;39;20795;-73
2023/10/25 10:28:44;;;;;;;5.20;2.53;;;;;;;;;;2614175;39;20707;-73
2023/10/25 10:31:11;;;;;;;3.90;2.73;;;;;;;;;;2613578;46;20933;-74
2023/10/25 10:33:44;;;;;;;4.43;2.07;;;;;;;;;;2614056;39;20995;-74
2023/10/25 10:36:23;;;;;;;4.50;1.60;;;;;;;;;;2615825;54;20416;-75
2023/10/25 10:39:08;;;;;;;3.57;1.97;;;;;;;;;;2616254;54;20435;-75
2023/10/25 10:41:34;;;;;;;5.13;1.73;;;;;;;;;;2615747;47;20452;-75
2023/10/25 10:44:06;;;;;;;5.17;1.97;;;;;;;;;;2616506;54;20427;-74
2023/10/25 10:46:41;;;;;;;4.87;2.70;;;;;;;;;;2616064;54;20479;-75
2023/10/25 10:49:13;;;;;;;4.53;1.97;;;;;;;;;;2615820;54;20383;-75
2023/10/25 10:51:42;;;;;;;2.57;1.60;;;;;;;;;;2615947;47;20423;-75
2023/10/25 10:54:08;;;;;;;6.63;2.10;;;;;;;;;;2616202;54;20400;-74
2023/10/25 10:56:38;;;;;;;3.50;2.07;;;;;;;;;;2616215;50;20411;-74
2023/10/25 10:59:06;;;;;;;3.10;2.17;;;;;;;;;;2616385;47;20503;-74
2023/10/25 11:01:32;;;;;;;7.53;2.40;;;;;;;;;;2616519;54;20408;-73
2023/10/25 11:03:58;;;;;;;3.40;2.07;;;;;;;;;;2616080;51;20398;-74
2023/10/25 11:06:30;;;;;;;5.43;2.70;;;;;;;;;;2615890;47;20414;-74
2023/10/25 11:09:18;;;;;;;3.40;2.00;;;;;;;;;;2616887;39;20802;-73
2023/10/25 11:11:44;;;;;;;4.87;2.60;;;;;;;;;;2616392;54;20414;-75
2023/10/25 11:14:11;;;;;;;7.20;2.43;;;;;;;;;;2616493;54;20404;-75
2023/10/25 11:16:37;;;;;;;3.67;2.13;;;;;;;;;;2614460;54;20415;-74
2023/10/25 11:19:10;;;;;;;7.00;2.10;;;;;;;;;;2612895;39;20807;-74
2023/10/25 11:21:36;;;;;;;4.00;2.30;;;;;;;;;;2612208;54;20491;-74
2023/10/25 11:24:06;;;;;;;4.43;2.27;;;;;;;;;;2612380;54;20404;-74
2023/10/25 11:26:37;;;;;;;4.37;1.87;;;;;;;;;;2613065;39;20803;-73
2023/10/25 11:29:03;;;;;;;3.50;1.90;;;;;;;;;;2612953;46;20429;-73
2023/10/25 11:31:31;;;;;;;4.20;2.30;;;;;;;;;;2612053;54;20430;-74
2023/10/25 11:33:58;;;;;;;7.47;2.33;;;;;;;;;;2613585;54;20446;-74
2023/10/25 11:36:26;;;;;;;3.40;2.23;;;;;;;;;;2613143;47;20434;-74
2023/10/25 11:38:52;;;;;;;4.13;2.50;;;;;;;;;;2612409;46;20485;-72
2023/10/25 11:41:19;;;;;;;4.33;2.00;;;;;;;;;;2611927;54;20415;-73
2023/10/25 11:43:45;;;;;;;4.53;2.57;;;;;;;;;;2612728;54;20427;-73
2023/10/25 11:46:11;;;;;;;3.03;2.20;;;;;;;;;;2612443;54;20567;-73
2023/10/25 11:48:38;;;;;;;8.23;2.83;;;;;;;;;;2612270;54;20532;-72
2023/10/25 11:51:05;;;;;;;2.93;2.13;;;;;;;;;;2613109;54;20430;-73
2023/10/25 11:53:31;;;;;;;3.90;2.00;;;;;;;;;;2613637;46;20462;-73
2023/10/25 11:55:58;;;;;;;4.47;2.30;;;;;;;;;;2613570;54;20416;-74
2023/10/25 11:58:25;;;;;;;2.90;2.20;;;;;;;;;;2613342;46;20446;-74
2023/10/25 12:00:51;;;;;;;3.80;2.30;;;;;;;;;;2612729;54;20974;-73
2023/10/25 12:03:17;;;;;;;4.07;2.30;;;;;;;;;;2612544;54;20430;-73
2023/10/25 12:05:43;;;;;;;5.37;2.60;;;;;;;;;;2613435;54;20526;-74
2023/10/25 12:08:10;;;;;;;3.90;2.70;;;;;;;;;;2612209;54;20410;-73
2023/10/25 12:10:36;;;;;;;4.70;2.70;;;;;;;;;;2614879;39;20840;-76
2023/10/25 12:13:02;;;;;;;5.80;2.77;;;;;;;;;;2613859;54;20922;-77
2023/10/25 12:15:29;;;;;;;8.03;3.50;;;;;;;;;;2614058;54;20431;-78
2023/10/25 12:17:55;;;;;;;3.33;2.53;;;;;;;;;;2614414;39;20807;-76
2023/10/25 12:20:21;;;;;;;7.60;3.03;;;;;;;;;;2614506;47;20840;-76
2023/10/25 12:22:48;;;;;;;3.40;2.50;;;;;;;;;;2614062;39;20950;-76
2023/10/25 12:25:14;;;;;;;5.20;2.57;;;;;;;;;;2612888;47;20466;-74
2023/10/25 12:27:40;;;;;;;4.27;2.80;;;;;;;;;;2613604;31;20844;-74
2023/10/25 12:30:06;;;;;;;5.73;3.30;;;;;;;;;;2612673;47;20420;-74
2023/10/25 12:32:32;;;;;;;4.80;2.73;;;;;;;;;;2613103;54;20386;-74
2023/10/25 12:34:59;;;;;;;5.10;3.40;;;;;;;;;;2613387;54;20379;-74
2023/10/25 12:37:26;;;;;;;6.10;3.10;;;;;;;;;;2612619;54;20392;-74
2023/10/25 12:39:52;;;;;;;6.07;3.70;;;;;;;;;;2612450;54;20478;-75
2023/10/25 12:42:19;;;;;;;5.60;4.10;;;;;;;;;;2611338;54;21297;-75
2023/10/25 12:44:45;;;;;;;6.67;3.30;;;;;;;;;;2612816;54;20388;-73
2023/10/25 12:47:11;;;;;;;6.53;4.17;;;;;;;;;;2611599;54;20432;-74
2023/10/25 12:49:37;;;;;;;5.50;3.93;;;;;;;;;;2612706;54;20455;-74
2023/10/25 12:52:04;;;;;;;9.50;4.03;;;;;;;;;;2613055;54;21164;-74
2023/10/25 12:54:31;;;;;;;3.90;2.70;;;;;;;;;;2612858;54;20403;-73
2023/10/25 12:56:57;;;;;;;6.67;4.10;;;;;;;;;;2612414;54;20428;-74
2023/10/25 12:59:23;;;;;;;5.97;4.00;;;;;;;;;;2613363;54;20411;-74
2023/10/25 13:01:50;;;;;;;5.00;3.20;;;;;;;;;;2612095;54;20415;-74
2023/10/25 13:04:17;;;;;;;5.40;3.53;;;;;;;;;;2612872;54;20411;-74
2023/10/25 13:06:44;;;;;;;4.67;3.30;;;;;;;;;;2611168;54;20420;-74
2023/10/25 13:09:13;;;;;;;5.40;3.03;;;;;;;;;;2613148;54;20992;-74
2023/10/25 13:11:39;;;;;;;4.13;2.77;;;;;;;;;;2612304;54;20407;-75
2023/10/25 13:14:05;;;;;;;5.20;3.63;;;;;;;;;;2613334;54;20507;-74
2023/10/25 13:16:31;;;;;;;5.03;3.37;;;;;;;;;;2612045;54;20439;-76
2023/10/25 13:18:57;;;;;;;4.10;3.00;;;;;;;;;;2612732;46;20443;-75
2023/10/25 13:21:24;;;;;;;5.30;3.73;;;;;;;;;;2613526;54;20410;-76
2023/10/25 13:23:50;;;;;;;6.10;3.13;;;;;;;;;;2613324;54;20506;-76
2023/10/25 13:26:17;;;;;;;5.03;3.40;;;;;;;;;;2612851;54;20415;-76
2023/10/25 13:28:43;;;;;;;5.93;3.17;;;;;;;;;;2613391;54;21374;-75
2023/10/25 13:31:10;;;;;;;6.30;3.67;;;;;;;;;;2612452;47;20419;-75
2023/10/25 13:33:36;;;;;;;9.73;3.87;;;;;;;;;;2613705;54;20423;-75
2023/10/25 13:36:03;;;;;;;6.13;3.87;;;;;;;;;;2614110;54;20411;-75
2023/10/25 13:38:29;;;;;;;4.90;3.53;;;;;;;;;;2613149;51;20517;-75
2023/10/25 13:40:55;;;;;;;5.00;3.20;;;;;;;;;;2613815;54;20384;-75
2023/10/25 13:43:21;;;;;;;7.03;3.10;;;;;;;;;;2613443;54;20459;-75
2023/10/25 13:45:47;;;;;;;3.93;3.23;;;;;;;;;;2612913;47;20985;-75
2023/10/25 13:48:13;;;;;;;7.87;3.10;;;;;;;;;;2612235;54;20429;-75
2023/10/25 13:50:39;;;;;;;5.80;3.03;;;;;;;;;;2613715;54;20387;-76
2023/10/25 13:53:05;;;;;;;2.87;2.33;;;;;;;;;;2613535;54;20503;-75
2023/10/25 13:55:31;;;;;;;3.17;2.70;;;;;;;;;;2613983;54;20433;-74
2023/10/25 13:57:58;;;;;;;4.37;3.20;;;;;;;;;;2612571;46;20427;-74
2023/10/25 14:00:26;;;;;;;4.10;2.73;;;;;;;;;;2613356;54;20404;-75
2023/10/25 14:02:53;;;;;;;5.23;3.53;;;;;;;;;;2612122;47;20407;-75
2023/10/25 14:05:19;;;;;;;3.63;3.00;;;;;;;;;;2613703;54;20419;-74
2023/10/25 14:07:45;;;;;;;4.80;3.20;;;;;;;;;;2613106;54;20435;-74
2023/10/25 14:10:11;;;;;;;5.37;2.63;;;;;;;;;;2613428;54;20393;-75
2023/10/25 14:12:39;;;;;;;3.87;3.10;;;;;;;;;;2612432;54;20395;-75
2023/10/25 14:15:05;;;;;;;4.30;3.20;;;;;;;;;;2612896;54;20415;-75
2023/10/25 14:17:31;;;;;;;5.30;3.13;;;;;;;;;;2613877;54;20491;-76
2023/10/25 14:19:57;;;;;;;4.90;3.03;;;;;;;;;;2613006;54;20551;-74
2023/10/25 14:22:23;;;;;;;4.80;3.60;;;;;;;;;;2613855;54;20491;-75
2023/10/25 14:24:49;;;;;;;5.07;3.40;;;;;;;;;;2613264;54;20438;-74
2023/10/25 14:27:15;;;;;;;5.20;3.50;;;;;;;;;;2613454;54;20442;-75
2023/10/25 14:29:47;;;;;;;6.97;3.53;;;;;;;;;;2613728;54;20395;-75
2023/10/25 14:32:13;;;;;;;4.40;3.80;;;;;;;;;;2611822;54;20503;-75
2023/10/25 14:34:40;;;;;;;5.83;3.90;;;;;;;;;;2613624;39;20789;-74
2023/10/25 14:37:07;;;;;;;6.40;4.00;;;;;;;;;;2613744;39;21045;-75
2023/10/25 14:39:34;;;;;;;8.30;3.50;;;;;;;;;;2613433;54;20461;-74
2023/10/25 14:42:01;;;;;;;8.73;3.80;;;;;;;;;;2613491;54;20478;-74
2023/10/25 14:44:27;;;;;;;7.13;3.50;;;;;;;;;;2614024;54;20406;-74